createdAt,value
2023-03-13T00:01:32.712Z,5.97
2023-03-13T00:04:00.411Z,5.93
2023-03-13T00:06:32.340Z,6.25
2023-03-13T00:09:00.864Z,6.10
2023-03-13T00:11:28.814Z,6.07
2023-03-13T00:13:58.449Z,6.40
2023-03-13T00:16:27.902Z,5.68
2023-03-13T00:18:57.162Z,6.10
2023-03-13T00:21:27.212Z,6.18
2023-03-13T00:23:55.566Z,6.57
2023-03-13T00:26:25.352Z,6.43
2023-03-13T00:28:53.482Z,5.80
2023-03-13T00:31:39.728Z,6.38
2023-03-13T00:34:07.292Z,6.05
2023-03-13T00:36:35.848Z,6.13
2023-03-13T00:39:05.708Z,6.50
2023-03-13T00:41:36.675Z,6.90
2023-03-13T00:44:05.740Z,6.10
2023-03-13T00:46:33.368Z,5.93
2023-03-13T00:49:14.685Z,6.38
2023-03-13T00:51:47.874Z,6.03
2023-03-13T00:54:15.560Z,5.97
2023-03-13T00:56:43.243Z,6.07
2023-03-13T00:59:10.844Z,6.18
2023-03-13T01:01:38.572Z,5.97
2023-03-13T01:04:12.819Z,6.78
2023-03-13T01:06:43.199Z,6.70
2023-03-13T01:09:13.844Z,6.03
2023-03-13T01:11:44.287Z,6.07
2023-03-13T01:14:17.265Z,5.97
2023-03-13T01:16:45.395Z,5.75
2023-03-13T01:19:15.251Z,5.95
2023-03-13T01:21:45.292Z,6.30
2023-03-13T01:24:13.011Z,6.43
2023-03-13T01:26:40.922Z,5.78
2023-03-13T01:29:08.457Z,5.55
2023-03-13T01:31:36.801Z,6.55
2023-03-13T01:34:07.668Z,6.30
2023-03-13T01:36:36.828Z,6.15
2023-03-13T01:39:05.221Z,6.20
2023-03-13T01:41:32.829Z,6.10
2023-03-13T01:44:01.088Z,6.03
2023-03-13T01:46:38.038Z,6.10
2023-03-13T01:49:29.929Z,6.03
2023-03-13T01:52:12.973Z,6.00
2023-03-13T01:54:57.232Z,6.10
2023-03-13T02:00:02.256Z,6.53
2023-03-13T02:02:54.583Z,6.10
2023-03-13T02:05:25.873Z,5.88
2023-03-13T02:08:04.876Z,6.20
2023-03-13T02:10:37.362Z,5.85
2023-03-13T02:13:04.897Z,6.28
2023-03-13T02:15:33.925Z,6.38
2023-03-13T02:18:02.313Z,6.40
2023-03-13T02:20:29.978Z,6.20
2023-03-13T02:23:26.832Z,6.00
2023-03-13T02:25:55.220Z,6.18
2023-03-13T02:28:33.914Z,6.28
2023-03-13T02:31:03.996Z,5.90
2023-03-13T02:33:37.097Z,6.30
2023-03-13T02:36:05.840Z,6.13
2023-03-13T02:38:36.919Z,6.35
2023-03-13T02:41:06.315Z,5.57
2023-03-13T02:43:36.948Z,5.90
2023-03-13T02:46:09.822Z,5.85
2023-03-13T02:48:44.302Z,6.07
2023-03-13T02:51:22.014Z,5.88
2023-03-13T02:53:51.771Z,6.22
2023-03-13T02:56:23.088Z,5.97
2023-03-13T02:58:50.846Z,5.43
2023-03-13T03:01:22.381Z,5.88
2023-03-13T03:03:50.040Z,5.53
2023-03-13T03:06:17.771Z,6.07
2023-03-13T03:08:46.546Z,6.05
2023-03-13T03:11:14.517Z,5.95
2023-03-13T03:13:47.502Z,6.13
2023-03-13T03:16:20.709Z,5.78
2023-03-13T03:18:48.331Z,6.13
2023-03-13T03:21:16.498Z,6.05
2023-03-13T03:23:44.095Z,6.25
2023-03-13T03:26:11.691Z,6.20
2023-03-13T03:28:39.864Z,6.10
2023-03-13T03:31:13.616Z,6.32
2023-03-13T03:33:42.542Z,6.25
2023-03-13T03:36:19.413Z,6.53
2023-03-13T03:38:48.065Z,6.10
2023-03-13T03:41:19.350Z,6.50
2023-03-13T03:43:50.496Z,6.65
2023-03-13T03:46:21.735Z,5.82
2023-03-13T03:48:49.277Z,6.15
2023-03-13T03:51:16.798Z,6.43
2023-03-13T03:53:47.155Z,6.20
2023-03-13T03:56:15.202Z,6.22
2023-03-13T03:58:48.161Z,5.63
2023-03-13T04:01:24.532Z,5.93
2023-03-13T04:03:52.169Z,6.20
2023-03-13T04:06:19.895Z,5.85
2023-03-13T04:08:48.361Z,6.07
2023-03-13T04:11:18.756Z,5.53
2023-03-13T04:13:50.819Z,5.60
2023-03-13T04:16:18.826Z,5.45
2023-03-13T04:18:48.095Z,6.07
2023-03-13T04:21:17.373Z,5.60
2023-03-13T04:23:52.183Z,5.53
2023-03-13T04:26:20.571Z,5.53
2023-03-13T04:28:50.143Z,5.43
2023-03-13T04:31:21.868Z,5.53
2023-03-13T04:42:54.767Z,5.32
2023-03-13T04:45:44.964Z,5.10
2023-03-13T04:48:39.538Z,5.15
2023-03-13T04:51:25.722Z,5.05
2023-03-13T04:54:34.037Z,4.85
2023-03-13T04:57:33.092Z,5.03
2023-03-13T05:00:12.696Z,5.40
2023-03-13T05:02:56.888Z,5.45
2023-03-13T05:05:36.385Z,4.95
2023-03-13T05:08:18.910Z,5.45
2023-03-13T05:10:58.189Z,5.32
2023-03-13T05:13:45.634Z,5.00
2023-03-13T05:16:27.664Z,5.35
2023-03-13T05:19:27.539Z,5.32
2023-03-13T05:22:21.129Z,5.05
2023-03-13T05:25:07.725Z,5.10
2023-03-13T05:27:54.090Z,4.70
2023-03-13T05:30:44.009Z,5.43
2023-03-13T05:33:27.563Z,4.90
2023-03-13T05:36:13.851Z,5.03
2023-03-13T05:38:55.084Z,4.82
2023-03-13T05:41:31.570Z,5.25
2023-03-13T05:44:12.147Z,5.40
2023-03-13T05:46:59.947Z,5.60
2023-03-13T05:49:33.778Z,5.05
2023-03-13T05:52:01.379Z,5.10
2023-03-13T05:54:49.166Z,5.07
2023-03-13T05:57:54.580Z,6.03
2023-03-13T06:00:49.623Z,5.22
2023-03-13T06:03:46.885Z,5.40
2023-03-13T06:06:18.308Z,5.63
2023-03-13T06:08:53.599Z,6.07
2023-03-13T06:11:22.973Z,5.63
2023-03-13T06:13:53.870Z,5.80
2023-03-13T06:19:18.037Z,5.30
2023-03-13T06:21:46.092Z,5.55
2023-03-13T06:24:16.267Z,6.15
2023-03-13T06:26:44.440Z,5.45
2023-03-13T06:30:11.414Z,5.45
2023-03-13T06:33:02.447Z,5.75
2023-03-13T06:35:34.296Z,5.90
2023-03-13T06:41:28.680Z,6.05
2023-03-13T06:44:34.774Z,6.22
2023-03-13T06:47:54.726Z,6.35
2023-03-13T06:50:48.065Z,6.68
2023-03-13T06:53:40.030Z,6.13
2023-03-13T06:56:09.091Z,5.78
2023-03-13T06:58:39.790Z,6.30
2023-03-13T07:01:12.886Z,5.97
2023-03-13T07:07:25.519Z,7.20
2023-03-13T07:34:23.539Z,6.95
2023-03-13T07:37:25.180Z,7.83
2023-03-13T07:40:05.931Z,7.40
2023-03-13T07:43:09.535Z,7.75
2023-03-13T07:46:27.781Z,7.55
2023-03-13T07:49:15.493Z,7.10
2023-03-13T07:52:07.072Z,7.43
2023-03-13T07:54:39.971Z,7.32
2023-03-13T07:57:07.759Z,7.60
2023-03-13T07:59:35.562Z,7.80
2023-03-13T08:02:03.537Z,7.10
2023-03-13T08:04:31.076Z,8.15
2023-03-13T08:06:58.730Z,8.43
2023-03-13T08:09:26.157Z,8.63
2023-03-13T08:11:53.536Z,8.57
2023-03-13T08:14:21.093Z,9.07
2023-03-13T08:16:49.278Z,8.65
2023-03-13T08:19:17.001Z,8.50
2023-03-13T08:21:44.454Z,8.95
2023-03-13T08:24:13.133Z,8.43
2023-03-13T08:26:42.114Z,8.80
2023-03-13T08:29:12.919Z,7.95
2023-03-13T08:31:48.508Z,8.63
2023-03-13T08:34:17.642Z,8.48
2023-03-13T08:36:45.517Z,8.27
2023-03-13T08:39:15.515Z,7.70
2023-03-13T08:41:43.137Z,7.70
2023-03-13T08:44:13.534Z,8.20
2023-03-13T08:46:41.541Z,8.25
2023-03-13T08:49:12.178Z,8.80
2023-03-13T08:51:42.882Z,9.07
2023-03-13T08:54:12.941Z,9.82
2023-03-13T08:56:44.766Z,10.30
2023-03-13T08:59:12.784Z,10.43
2023-03-13T09:01:40.485Z,9.35
2023-03-13T09:04:08.382Z,8.10
2023-03-13T09:06:37.443Z,7.85
2023-03-13T09:09:06.850Z,8.32
2023-03-13T09:11:36.173Z,8.18
2023-03-13T09:14:03.840Z,8.23
2023-03-13T09:16:33.698Z,8.05
2023-03-13T09:19:01.781Z,7.63
2023-03-13T09:21:35.085Z,7.80
2023-03-13T09:24:02.982Z,7.57
2023-03-13T09:26:30.700Z,7.75
2023-03-13T09:28:58.364Z,7.97
2023-03-13T09:31:33.177Z,8.40
2023-03-13T09:34:01.690Z,7.80
2023-03-13T09:36:31.621Z,8.23
2023-03-13T09:39:00.430Z,8.77
2023-03-13T09:41:43.165Z,9.75
2023-03-13T09:44:10.681Z,11.35
2023-03-13T09:46:53.301Z,11.15
2023-03-13T09:49:45.499Z,8.10
2023-03-13T09:52:43.997Z,8.38
2023-03-13T09:55:21.555Z,7.07
2023-03-13T09:58:00.241Z,8.07
2023-03-13T10:00:37.284Z,7.80
2023-03-13T10:03:28.813Z,7.82
2023-03-13T10:06:01.396Z,6.75
2023-03-13T10:08:36.651Z,6.57
2023-03-13T10:13:41.307Z,6.55
2023-03-13T10:16:19.382Z,6.60
2023-03-13T10:18:52.457Z,6.97
2023-03-13T10:21:26.422Z,7.25
2023-03-13T10:24:00.543Z,6.60
2023-03-13T10:26:33.333Z,7.50
2023-03-13T10:29:28.135Z,7.50
2023-03-13T10:32:07.199Z,7.28
2023-03-13T10:34:51.926Z,7.75
2023-03-13T10:37:26.848Z,6.50
2023-03-13T10:39:55.302Z,7.00
2023-03-13T10:42:36.298Z,6.75
2023-03-13T10:45:06.505Z,6.55
2023-03-13T10:47:35.870Z,6.07
2023-03-13T10:50:04.835Z,5.82
2023-03-13T10:52:43.292Z,6.00
2023-03-13T10:55:19.180Z,7.07
2023-03-13T10:58:00.491Z,6.47
2023-03-13T11:00:35.914Z,7.00
2023-03-13T11:03:14.266Z,6.65
2023-03-13T11:05:43.414Z,6.32
2023-03-13T11:08:19.722Z,6.97
2023-03-13T11:11:06.713Z,7.03
2023-03-13T11:13:42.935Z,7.50
2023-03-13T11:16:26.507Z,7.55
2023-03-13T11:19:27.828Z,7.47
2023-03-13T11:22:16.564Z,7.70
2023-03-13T11:25:00.681Z,5.90
2023-03-13T11:27:38.020Z,6.32
2023-03-13T11:30:33.679Z,6.55
2023-03-13T11:33:20.445Z,6.28
2023-03-13T11:36:00.951Z,6.57
2023-03-13T11:38:38.571Z,5.35
2023-03-13T11:41:42.005Z,5.00
2023-03-13T11:44:36.980Z,4.90
2023-03-13T11:47:27.754Z,4.63
2023-03-13T11:50:16.848Z,4.63
2023-03-13T11:53:12.034Z,4.18
2023-03-13T11:55:49.989Z,3.92
2023-03-13T11:58:25.258Z,4.72
2023-03-13T12:01:07.588Z,4.03
2023-03-13T12:03:51.306Z,4.13
2023-03-13T12:06:32.063Z,4.40
2023-03-13T12:09:10.358Z,4.00
2023-03-13T12:11:48.477Z,4.30
2023-03-13T12:14:30.577Z,3.75
2023-03-13T12:17:05.704Z,3.60
2023-03-13T12:22:16.744Z,3.83
2023-03-13T12:24:51.556Z,3.58
2023-03-13T12:27:32.662Z,3.35
2023-03-13T12:30:18.348Z,3.45
2023-03-13T12:35:46.195Z,3.10
2023-03-13T12:38:22.785Z,3.25
2023-03-13T12:41:08.170Z,3.40
2023-03-13T12:43:40.319Z,3.17
2023-03-13T12:46:16.663Z,4.03
2023-03-13T12:49:00.991Z,3.72
2023-03-13T12:52:11.928Z,3.17
2023-03-13T12:55:05.131Z,3.45
2023-03-13T12:58:06.603Z,3.63
2023-03-13T13:00:37.586Z,3.40
2023-03-13T13:03:39.829Z,3.58
2023-03-13T13:06:11.636Z,3.50
2023-03-13T13:08:47.068Z,3.80
2023-03-13T13:11:39.474Z,3.50
2023-03-13T13:14:16.048Z,4.10
2023-03-13T13:16:50.163Z,3.53
2023-03-13T13:19:25.138Z,3.78
2023-03-13T13:22:29.955Z,3.50
2023-03-13T13:25:01.352Z,3.35
2023-03-13T13:27:32.784Z,3.90
2023-03-13T13:30:31.328Z,3.92
2023-03-13T13:33:43.037Z,3.70
2023-03-13T13:36:10.716Z,4.43
2023-03-13T13:38:41.217Z,4.45
2023-03-13T13:41:11.604Z,4.22
2023-03-13T13:47:28.624Z,4.18
2023-03-13T13:50:00.279Z,4.38
2023-03-13T13:52:38.114Z,3.83
2023-03-13T13:55:27.170Z,4.10
2023-03-13T13:58:05.451Z,4.00
2023-03-13T14:00:42.347Z,4.25
2023-03-13T14:03:21.146Z,4.20
2023-03-13T14:05:52.130Z,4.13
2023-03-13T14:08:39.386Z,4.47
2023-03-13T14:11:33.404Z,4.30
2023-03-13T14:14:10.610Z,3.90
2023-03-13T14:16:39.419Z,16.95
2023-03-13T14:19:22.407Z,29.20
2023-03-13T14:22:16.597Z,5.05
2023-03-13T14:24:57.039Z,7.00
2023-03-13T14:27:24.625Z,4.72
2023-03-13T14:30:03.831Z,4.70
2023-03-13T14:32:31.433Z,5.57
2023-03-13T14:34:59.004Z,4.88
2023-03-13T14:37:44.820Z,5.10
2023-03-13T14:40:18.095Z,6.00
2023-03-13T14:42:48.790Z,5.18
2023-03-13T14:45:22.559Z,4.88
2023-03-13T14:47:53.356Z,5.35
2023-03-13T14:50:25.433Z,5.05
2023-03-13T14:52:58.393Z,5.07
2023-03-13T14:55:36.885Z,6.32
2023-03-13T14:58:27.164Z,5.88
2023-03-13T15:00:56.798Z,4.80
2023-03-13T15:03:29.301Z,6.30
2023-03-13T15:06:14.712Z,5.20
2023-03-13T15:08:45.827Z,5.32
2023-03-13T15:11:30.166Z,5.20
2023-03-13T15:13:58.033Z,5.30
2023-03-13T15:16:26.984Z,5.25
2023-03-13T15:18:55.562Z,5.30
2023-03-13T15:21:31.221Z,5.13
2023-03-13T15:24:18.380Z,5.25
2023-03-13T15:26:54.380Z,5.50
2023-03-13T15:29:27.006Z,5.53
2023-03-13T15:31:54.570Z,5.32
2023-03-13T15:34:27.455Z,5.20
2023-03-13T15:36:54.893Z,5.30
2023-03-13T15:39:28.515Z,5.80
2023-03-13T15:41:57.155Z,5.30
2023-03-13T15:44:24.708Z,5.03
2023-03-13T15:46:52.346Z,4.95
2023-03-13T15:49:20.620Z,4.88
2023-03-13T15:51:48.190Z,5.00
2023-03-13T15:54:15.784Z,5.15
2023-03-13T15:56:44.665Z,5.28
2023-03-13T15:59:14.229Z,4.93
2023-03-13T16:01:44.459Z,5.45
2023-03-13T16:04:14.239Z,5.10
2023-03-13T16:06:41.982Z,5.30
2023-03-13T16:09:11.585Z,4.80
2023-03-13T16:11:45.326Z,5.10
2023-03-13T16:14:20.565Z,5.00
2023-03-13T16:16:49.981Z,4.75
2023-03-13T16:19:17.742Z,5.03
2023-03-13T16:21:48.487Z,4.95
2023-03-13T16:24:17.689Z,5.60
2023-03-13T16:26:45.743Z,5.30
2023-03-13T16:29:15.150Z,5.00
2023-03-13T16:31:45.672Z,5.57
2023-03-13T16:34:13.282Z,5.20
2023-03-13T16:36:40.866Z,5.68
2023-03-13T16:39:14.580Z,5.15
2023-03-13T16:41:42.140Z,4.82
2023-03-13T16:44:12.608Z,5.32
2023-03-13T16:46:46.021Z,5.57
2023-03-13T16:49:19.933Z,5.45
2023-03-13T16:51:49.536Z,5.57
2023-03-13T16:54:17.239Z,5.35
2023-03-13T16:56:44.838Z,5.10
2023-03-13T16:59:15.595Z,5.55
2023-03-13T17:01:43.747Z,5.50
2023-03-13T17:04:12.607Z,5.80
2023-03-13T17:06:42.565Z,10.02
2023-03-13T17:09:16.669Z,9.25
2023-03-13T17:11:44.736Z,7.82
2023-03-13T17:14:15.684Z,7.35
2023-03-13T17:16:46.338Z,6.82
2023-03-13T17:19:17.097Z,5.50
2023-03-13T17:21:45.176Z,5.85
2023-03-13T17:24:12.863Z,6.22
2023-03-13T17:26:40.593Z,6.22
2023-03-13T17:29:13.722Z,5.97
2023-03-13T17:31:41.785Z,6.75
2023-03-13T17:34:10.827Z,6.78
2023-03-13T17:36:41.337Z,6.38
2023-03-13T17:39:16.229Z,6.57
2023-03-13T17:41:43.800Z,6.95
2023-03-13T17:44:11.509Z,6.10
2023-03-13T17:46:47.675Z,8.57
2023-03-13T17:49:19.050Z,9.20
2023-03-13T17:51:49.238Z,9.48
2023-03-13T17:54:18.462Z,9.25
2023-03-13T17:56:45.982Z,8.25
2023-03-13T17:59:18.563Z,7.88
2023-03-13T18:01:47.327Z,8.35
2023-03-13T18:04:15.549Z,8.43
2023-03-13T18:06:47.790Z,8.07
2023-03-13T18:09:21.096Z,7.80
2023-03-13T18:11:49.625Z,8.02
2023-03-13T18:14:17.370Z,8.40
2023-03-13T18:16:48.305Z,8.55
2023-03-13T18:19:21.220Z,9.05
2023-03-13T18:21:52.649Z,8.27
2023-03-13T18:24:20.842Z,8.27
2023-03-13T18:26:49.878Z,8.45
2023-03-13T18:29:46.972Z,8.05
2023-03-13T18:32:19.184Z,8.25
2023-03-13T18:34:46.831Z,9.10
2023-03-13T18:37:44.237Z,7.97
2023-03-13T18:41:17.634Z,7.85
2023-03-13T18:44:01.937Z,7.50
2023-03-13T18:46:53.278Z,8.60
2023-03-13T18:49:26.722Z,7.78
2023-03-13T18:51:57.649Z,7.93
2023-03-13T18:58:02.233Z,8.30
2023-03-13T19:00:31.426Z,8.07
2023-03-13T19:02:59.308Z,7.57
2023-03-13T19:05:29.896Z,8.02
2023-03-13T19:08:30.068Z,6.70
2023-03-13T19:11:05.671Z,6.53
2023-03-13T19:16:32.186Z,6.50
2023-03-13T19:18:59.866Z,7.25
2023-03-13T19:21:29.784Z,7.20
2023-03-13T19:23:57.835Z,7.90
2023-03-13T19:26:32.397Z,7.30
2023-03-13T19:29:00.158Z,7.47
2023-03-13T19:32:07.371Z,7.28
2023-03-13T19:35:27.249Z,6.95
2023-03-13T19:41:29.205Z,6.55
2023-03-13T19:43:56.654Z,6.93
2023-03-13T19:47:18.748Z,6.88
2023-03-13T19:50:45.570Z,6.55
2023-03-13T19:53:39.009Z,7.05
2023-03-13T19:57:02.122Z,6.72
2023-03-13T20:02:46.392Z,6.53
2023-03-13T20:05:57.095Z,7.03
2023-03-13T20:13:00.816Z,7.25
2023-03-13T20:15:28.400Z,7.03
2023-03-13T20:17:56.282Z,6.88
2023-03-13T20:20:30.815Z,7.20
2023-03-13T20:23:00.220Z,7.15
2023-03-13T20:25:28.727Z,7.45
2023-03-13T20:27:56.348Z,7.80
2023-03-13T20:30:26.518Z,7.45
2023-03-13T20:32:59.777Z,7.18
2023-03-13T20:35:28.687Z,7.50
2023-03-13T20:37:57.906Z,7.13
2023-03-13T20:40:25.947Z,6.55
2023-03-13T20:42:53.611Z,6.80
2023-03-13T20:45:21.290Z,6.50
2023-03-13T20:47:49.124Z,6.90
2023-03-13T20:50:19.549Z,7.57
2023-03-13T20:52:50.509Z,6.90
2023-03-13T20:55:18.733Z,7.55
2023-03-13T20:57:47.525Z,6.85
2023-03-13T21:00:19.248Z,7.25
2023-03-13T21:04:04.698Z,7.35
2023-03-13T21:06:32.174Z,7.30
2023-03-13T21:08:59.618Z,7.47
2023-03-13T21:11:27.048Z,6.68
2023-03-13T21:13:54.500Z,7.07
2023-03-13T21:16:21.997Z,7.00
2023-03-13T21:18:56.427Z,7.63
2023-03-13T21:22:18.298Z,7.32
2023-03-13T21:25:36.407Z,7.75
2023-03-13T21:28:04.005Z,7.18
2023-03-13T21:30:31.589Z,7.97
2023-03-13T21:32:59.229Z,7.53
2023-03-13T21:35:27.033Z,7.80
2023-03-13T21:37:54.545Z,7.63
2023-03-13T21:40:22.140Z,8.02
2023-03-13T21:42:49.713Z,7.75
2023-03-13T21:45:54.826Z,7.72
2023-03-13T21:48:55.319Z,8.00
2023-03-13T21:51:22.882Z,8.55
2023-03-13T21:53:53.557Z,8.63
2023-03-13T21:56:22.314Z,8.57
2023-03-13T21:58:49.761Z,9.52
2023-03-13T22:01:17.401Z,9.98
2023-03-13T22:03:44.929Z,9.90
2023-03-13T22:06:36.047Z,10.82
2023-03-13T22:10:06.152Z,10.70
2023-03-13T22:13:20.422Z,10.00
2023-03-13T22:15:52.837Z,10.63
2023-03-13T22:18:20.417Z,10.30
2023-03-13T22:24:09.874Z,11.27
2023-03-13T22:26:44.336Z,11.40
2023-03-13T22:29:14.666Z,11.00
2023-03-13T22:31:44.824Z,12.30
2023-03-13T22:34:14.937Z,11.40
2023-03-13T22:36:45.490Z,11.82
2023-03-13T22:39:17.150Z,12.07
2023-03-13T22:41:44.695Z,12.02
2023-03-13T22:44:12.215Z,11.90
2023-03-13T22:46:39.624Z,12.15
2023-03-13T22:49:07.172Z,11.75
2023-03-13T22:51:34.692Z,12.48
2023-03-13T22:54:02.221Z,12.27
2023-03-13T22:56:29.767Z,12.38
2023-03-13T22:58:57.437Z,12.65
2023-03-13T23:01:26.559Z,12.55
2023-03-13T23:03:55.282Z,12.50
2023-03-13T23:06:25.205Z,13.00
2023-03-13T23:08:53.903Z,12.45
2023-03-13T23:11:21.393Z,13.73
2023-03-13T23:13:52.035Z,13.10
2023-03-13T23:16:19.490Z,12.75
2023-03-13T23:18:46.953Z,13.25
2023-03-13T23:21:16.383Z,13.45
2023-03-13T23:23:44.632Z,12.82
2023-03-13T23:26:14.699Z,13.85
2023-03-13T23:28:42.656Z,12.90
2023-03-13T23:31:25.399Z,12.82
2023-03-13T23:33:55.018Z,13.80
2023-03-13T23:36:22.693Z,12.95
2023-03-13T23:38:51.708Z,14.10
2023-03-13T23:41:20.622Z,13.52
2023-03-13T23:43:48.255Z,13.55
2023-03-13T23:46:20.958Z,12.40
2023-03-13T23:48:53.170Z,12.30
2023-03-13T23:51:20.779Z,12.88
2023-03-13T23:53:48.693Z,12.65
2023-03-13T23:56:16.337Z,12.90
2023-03-13T23:58:44.184Z,13.00
